ヨハネスブルグ の空港の天気 - METARとTAF

ヨハネスブルグ/O.R.タンボ国際空港 ( FAOR / JNB ) - 南アフリカ ヨハネスブルグ
飛行場実況気象(Metar)
観測時間01/25 22:00 SAST (01/25 20:00 UTC)
風向・風速東 6m/s
視程10km以上
天気現象
少しの雲 雲底高度 270m
全天の8割程度の雲 雲底高度 670m
気温16℃
湿度94%
気圧1022hPa
METARFAOR 252000Z 08012KT 9999 FEW009 BKN022 16/15 Q1022 NOSIG
過去の天気等 Google飛行場航空写真 Wunderground天気予報

過去48時間のMETAR

飛行場予報(TAF)
発表時間: 1/25 18:00 SAST (1/25 16:00 UTC)
予報対象時間: 25日20時 SAST ~ 27日2時 SAST
風向・風速東 5m/s
視程10km以上
全天の8割程度の雲 雲底高度 460m
25日22時 SAST ~ 25日24時 SAST に徐々に
全天の8割程度の雲 雲底高度 300m
26日0時 SAST ~ 26日10時 SAST に 確率 40% で一時的に
天気現象弱いしゅう雨
全天の8割程度の雲 雲底高度 90m
少しの塔状積雲 雲底高度 910m
26日2時 SAST ~ 26日4時 SAST に徐々に
風向・風速北北東 5m/s
26日10時 SAST ~ 26日12時 SAST に徐々に
全天の8割程度の雲 雲底高度 610m
26日12時 SAST ~ 26日15時 SAST に 確率 30% で一時的に
天気現象弱いしゅう雨
少しの塔状積雲 雲底高度 910m
26日15時 SAST から
風向・風速北北東 4m/s
視程10km以上
全天の4割程度の雲 雲底高度 910m
26日15時 SAST ~ 26日21時 SAST に 確率 30% で一時的に
天気現象弱い雷雨
少しの積乱雲 雲底高度 910m
TAF FAOR 251600Z 2518/2624 09010KT 9999 BKN015 TX21/2612Z TN15/2602Z
BECMG 2520/2522 BKN010
PROB40 TEMPO 2522/2608 -SHRA BKN003 FEW030TCU
BECMG 2600/2602 03010KT
BECMG 2608/2610 BKN020
PROB30 TEMPO 2610/2613 -SHRA FEW030TCU
FM261300 03008KT 9999 SCT030
PROB30 TEMPO 2613/2619 -TSRA FEW030CB